createdAt,value
2018-04-02T00:01:49.275Z,22.50
2018-04-02T00:04:16.770Z,22.50
2018-04-02T00:06:44.296Z,22.50
2018-04-02T00:09:11.807Z,22.50
2018-04-02T00:11:40.062Z,22.50
2018-04-02T00:14:07.571Z,22.50
2018-04-02T00:16:35.096Z,22.50
2018-04-02T00:19:02.558Z,22.50
2018-04-02T00:21:30.821Z,22.50
2018-04-02T00:23:58.370Z,22.50
2018-04-02T00:26:25.949Z,22.50
2018-04-02T00:28:54.226Z,22.50
2018-04-02T00:31:22.464Z,22.50
2018-04-02T00:33:49.950Z,22.40
2018-04-02T00:36:18.208Z,22.40
2018-04-02T00:38:45.706Z,22.40
2018-04-02T00:41:13.990Z,22.40
2018-04-02T00:43:41.512Z,22.40
2018-04-02T00:46:08.962Z,22.40
2018-04-02T00:48:36.462Z,22.40
2018-04-02T00:51:04.711Z,22.40
2018-04-02T00:53:32.221Z,22.40
2018-04-02T00:55:59.762Z,22.40
2018-04-02T00:58:27.276Z,22.40
2018-04-02T01:00:54.740Z,22.50
2018-04-02T01:03:22.258Z,22.40
2018-04-02T01:05:49.788Z,22.40
2018-04-02T01:08:17.246Z,22.40
2018-04-02T01:10:45.500Z,22.40
2018-04-02T01:13:13.819Z,22.40
2018-04-02T01:15:41.318Z,22.40
2018-04-02T01:18:08.836Z,22.40
2018-04-02T01:20:36.328Z,22.40
2018-04-02T01:23:03.936Z,22.50
2018-04-02T01:25:31.428Z,22.40
2018-04-02T01:27:58.940Z,22.40
2018-04-02T01:30:27.200Z,22.40
2018-04-02T01:32:55.469Z,22.40
2018-04-02T01:35:22.968Z,22.40
2018-04-02T01:37:50.450Z,22.40
2018-04-02T01:40:17.956Z,22.40
2018-04-02T01:42:45.534Z,22.40
2018-04-02T01:45:13.783Z,22.40
2018-04-02T01:47:42.818Z,22.40
2018-04-02T01:50:10.324Z,22.40
2018-04-02T01:52:37.835Z,22.40
2018-04-02T01:55:05.370Z,22.40
2018-04-02T01:57:33.622Z,22.40
2018-04-02T02:00:01.127Z,22.40
2018-04-02T02:02:28.638Z,22.40
2018-04-02T02:04:56.112Z,22.40
2018-04-02T02:07:24.384Z,22.40
2018-04-02T02:09:51.851Z,22.40
2018-04-02T02:12:20.110Z,22.40
2018-04-02T02:14:47.614Z,22.40
2018-04-02T02:17:15.100Z,22.40
2018-04-02T02:19:42.559Z,22.40
2018-04-02T02:22:10.062Z,22.40
2018-04-02T02:24:38.295Z,22.40
2018-04-02T02:27:05.827Z,22.40
2018-04-02T02:29:33.339Z,22.40
2018-04-02T02:32:00.840Z,22.40
2018-04-02T02:34:28.352Z,22.40
2018-04-02T02:36:55.856Z,22.40
2018-04-02T02:39:23.384Z,22.40
2018-04-02T02:41:51.631Z,22.40
2018-04-02T02:44:19.121Z,22.40
2018-04-02T02:46:47.382Z,22.40
2018-04-02T02:49:14.889Z,22.30
2018-04-02T02:51:42.383Z,22.30
2018-04-02T02:54:09.876Z,22.40
2018-04-02T02:56:38.133Z,22.40
2018-04-02T02:59:05.606Z,22.40
2018-04-02T03:01:33.861Z,22.40
2018-04-02T03:04:02.121Z,22.40
2018-04-02T03:06:29.663Z,22.30
2018-04-02T03:08:57.136Z,22.40
2018-04-02T03:11:24.611Z,22.40
2018-04-02T03:13:52.115Z,22.40
2018-04-02T03:16:19.653Z,22.30
2018-04-02T03:18:47.875Z,22.40
2018-04-02T03:21:15.476Z,22.40
2018-04-02T03:23:43.731Z,22.40
2018-04-02T03:26:11.206Z,22.40
2018-04-02T03:28:39.496Z,22.40
2018-04-02T03:31:07.173Z,22.40
2018-04-02T03:33:34.658Z,22.40
2018-04-02T03:36:02.271Z,22.30
2018-04-02T03:38:30.507Z,22.30
2018-04-02T03:40:57.982Z,22.30
2018-04-02T03:43:25.557Z,22.30
2018-04-02T03:45:53.817Z,22.30
2018-04-02T03:48:21.313Z,22.30
2018-04-02T03:50:48.817Z,22.30
2018-04-02T03:53:16.328Z,22.40
2018-04-02T03:55:43.861Z,22.30
2018-04-02T03:58:12.125Z,22.30
2018-04-02T04:00:39.647Z,22.30
2018-04-02T04:03:07.148Z,22.30
2018-04-02T04:05:34.629Z,22.30
2018-04-02T04:08:02.920Z,22.30
2018-04-02T04:10:30.417Z,22.30
2018-04-02T04:12:57.900Z,22.30
2018-04-02T04:15:25.470Z,22.30
2018-04-02T04:17:54.683Z,22.30
2018-04-02T04:20:22.217Z,22.30
2018-04-02T04:22:49.716Z,22.30
2018-04-02T04:25:17.208Z,22.30
2018-04-02T04:27:44.719Z,22.30
2018-04-02T04:30:12.243Z,22.30
2018-04-02T04:32:39.729Z,22.30
2018-04-02T04:35:07.961Z,22.30
2018-04-02T04:37:35.447Z,22.30
2018-04-02T04:40:03.013Z,22.30
2018-04-02T04:42:31.296Z,22.30
2018-04-02T04:44:59.579Z,22.30
2018-04-02T04:47:27.121Z,22.30
2018-04-02T04:49:55.392Z,22.30
2018-04-02T04:52:22.905Z,22.30
2018-04-02T04:54:50.409Z,22.30
2018-04-02T04:57:18.324Z,22.30
2018-04-02T04:59:45.813Z,22.30
2018-04-02T05:02:13.327Z,22.30
2018-04-02T05:04:40.803Z,22.30
2018-04-02T05:07:08.297Z,22.30
2018-04-02T05:09:35.789Z,22.30
2018-04-02T05:12:03.302Z,22.30
2018-04-02T05:14:30.798Z,22.30
2018-04-02T05:16:59.029Z,22.30
2018-04-02T05:19:26.633Z,22.30
2018-04-02T05:21:54.891Z,22.30
2018-04-02T05:24:22.380Z,22.30
2018-04-02T05:26:49.907Z,22.30
2018-04-02T05:29:18.204Z,22.30
2018-04-02T05:31:46.455Z,22.30
2018-04-02T05:34:14.703Z,22.30
2018-04-02T05:36:42.191Z,22.30
2018-04-02T05:39:09.723Z,22.30
2018-04-02T05:41:37.235Z,22.30
2018-04-02T05:44:05.493Z,22.30
2018-04-02T05:46:33.768Z,22.30
2018-04-02T05:49:02.025Z,22.30
2018-04-02T05:51:31.033Z,22.30
2018-04-02T05:53:58.557Z,22.30
2018-04-02T05:56:26.071Z,22.30
2018-04-02T05:58:54.323Z,22.40
2018-04-02T06:01:22.587Z,22.40
2018-04-02T06:03:50.107Z,22.40
2018-04-02T06:06:17.585Z,22.40
2018-04-02T06:08:45.099Z,22.40
2018-04-02T06:11:12.608Z,22.40
2018-04-02T06:13:40.125Z,22.40
2018-04-02T06:16:07.618Z,22.50
2018-04-02T06:18:35.091Z,22.60
2018-04-02T06:21:02.681Z,22.70
2018-04-02T06:23:30.922Z,22.90
2018-04-02T06:25:58.509Z,22.90
2018-04-02T06:28:26.767Z,22.90
2018-04-02T06:30:54.288Z,22.90
2018-04-02T06:33:21.778Z,22.80
2018-04-02T06:35:49.402Z,22.80
2018-04-02T06:38:16.918Z,22.80
2018-04-02T06:40:44.416Z,22.80
2018-04-02T06:43:11.910Z,22.80
2018-04-02T06:45:39.518Z,22.80
2018-04-02T06:48:07.013Z,22.80
2018-04-02T06:50:34.693Z,22.70
2018-04-02T06:53:02.207Z,22.70
2018-04-02T06:55:29.753Z,22.80
2018-04-02T06:57:58.014Z,22.80
2018-04-02T07:00:26.308Z,22.70
2018-04-02T07:02:53.805Z,22.70
2018-04-02T07:05:21.316Z,22.80
2018-04-02T07:07:49.553Z,22.80
2018-04-02T07:10:17.022Z,22.80
2018-04-02T07:12:44.609Z,22.80
2018-04-02T07:15:12.878Z,22.80
2018-04-02T07:17:41.147Z,22.80
2018-04-02T07:20:08.630Z,22.70
2018-04-02T07:22:36.120Z,22.70
2018-04-02T07:25:03.584Z,22.80
2018-04-02T07:27:31.084Z,22.80
2018-04-02T07:29:59.328Z,22.70
2018-04-02T07:32:26.854Z,22.70
2018-04-02T07:34:54.373Z,22.80
2018-04-02T07:37:21.883Z,22.80
2018-04-02T07:39:49.338Z,22.80
2018-04-02T07:42:16.842Z,22.80
2018-04-02T07:44:44.319Z,22.80
2018-04-02T07:47:12.704Z,22.80
2018-04-02T07:49:40.971Z,22.70
2018-04-02T07:52:09.221Z,22.70
2018-04-02T07:54:36.729Z,22.70
2018-04-02T07:57:04.284Z,22.70
2018-04-02T07:59:31.818Z,22.70
2018-04-02T08:02:00.055Z,22.70
2018-04-02T08:04:27.552Z,22.70
2018-04-02T08:06:55.836Z,22.70
2018-04-02T08:09:24.081Z,22.70
2018-04-02T08:11:51.659Z,22.70
2018-04-02T08:14:19.933Z,22.70
2018-04-02T08:16:48.224Z,22.70
2018-04-02T08:19:16.499Z,22.70
2018-04-02T08:21:44.788Z,22.70
2018-04-02T08:24:12.363Z,22.70
2018-04-02T08:26:39.817Z,22.70
2018-04-02T08:29:07.334Z,22.70
2018-04-02T08:31:34.853Z,22.70
2018-04-02T08:34:02.457Z,22.70
2018-04-02T08:36:29.976Z,22.70
2018-04-02T08:38:57.531Z,22.70
2018-04-02T08:41:25.755Z,22.70
2018-04-02T08:43:54.010Z,22.70
2018-04-02T08:46:21.499Z,22.60
2018-04-02T08:48:49.773Z,22.60
2018-04-02T08:51:18.072Z,22.60
2018-04-02T08:53:45.633Z,22.60
2018-04-02T08:56:13.132Z,22.60
2018-04-02T08:58:42.106Z,22.60
2018-04-02T09:01:09.615Z,22.60
2018-04-02T09:03:37.857Z,22.70
2018-04-02T09:06:05.455Z,22.70
2018-04-02T09:08:33.728Z,22.70
2018-04-02T09:11:02.033Z,22.70
2018-04-02T09:13:29.531Z,22.70
2018-04-02T09:15:57.026Z,22.70
2018-04-02T09:18:25.269Z,22.70
2018-04-02T09:20:52.780Z,22.70
2018-04-02T09:23:20.327Z,22.70
2018-04-02T09:25:47.847Z,22.70
2018-04-02T09:28:15.333Z,22.70
2018-04-02T09:30:43.591Z,22.70
2018-04-02T09:33:11.153Z,22.70
2018-04-02T09:35:38.638Z,22.70
2018-04-02T09:38:06.148Z,22.70
2018-04-02T09:40:33.627Z,22.70
2018-04-02T09:43:01.920Z,22.70
2018-04-02T09:45:30.154Z,22.70
2018-04-02T09:47:58.441Z,22.70
2018-04-02T09:50:25.981Z,22.70
2018-04-02T09:52:53.485Z,22.80
2018-04-02T09:55:21.739Z,22.80
2018-04-02T09:57:49.245Z,22.80
2018-04-02T10:00:16.741Z,22.80
2018-04-02T10:02:45.165Z,22.70
2018-04-02T10:05:12.724Z,22.80
2018-04-02T10:07:40.175Z,22.80
2018-04-02T10:10:08.519Z,22.80
2018-04-02T10:12:36.037Z,22.80
2018-04-02T10:15:03.501Z,22.80
2018-04-02T10:17:31.029Z,22.80
2018-04-02T10:19:59.289Z,22.80
2018-04-02T10:22:27.551Z,22.80
2018-04-02T10:24:55.059Z,22.90
2018-04-02T10:27:22.578Z,22.90
2018-04-02T10:29:50.128Z,22.80
2018-04-02T10:32:17.634Z,22.80
2018-04-02T10:34:45.119Z,22.80
2018-04-02T10:37:12.630Z,22.80
2018-04-02T10:39:40.902Z,22.90
2018-04-02T10:42:09.163Z,22.90
2018-04-02T10:44:36.677Z,22.80
2018-04-02T10:47:04.160Z,22.80
2018-04-02T10:49:31.659Z,22.80
2018-04-02T10:51:59.193Z,22.90
2018-04-02T10:54:26.783Z,22.90
2018-04-02T10:56:54.335Z,22.80
2018-04-02T10:59:21.860Z,22.80
2018-04-02T11:01:49.347Z,22.80
2018-04-02T11:04:17.624Z,22.80
2018-04-02T11:06:45.890Z,22.90
2018-04-02T11:09:14.142Z,22.90
2018-04-02T11:11:41.757Z,22.80
2018-04-02T11:14:09.261Z,22.80
2018-04-02T11:16:36.737Z,22.90
2018-04-02T11:19:04.303Z,22.90
2018-04-02T11:21:32.567Z,22.90
2018-04-02T11:24:00.092Z,22.80
2018-04-02T11:26:27.584Z,22.90
2018-04-02T11:28:55.131Z,22.90
2018-04-02T11:31:22.596Z,22.90
2018-04-02T11:33:50.085Z,22.90
2018-04-02T11:36:18.344Z,22.90
2018-04-02T11:38:46.585Z,22.90
2018-04-02T11:41:14.100Z,22.90
2018-04-02T11:43:41.624Z,22.90
2018-04-02T11:46:09.095Z,22.90
2018-04-02T11:48:37.374Z,22.90
2018-04-02T11:51:05.669Z,22.90
2018-04-02T11:53:33.217Z,22.90
2018-04-02T11:56:00.712Z,22.90
2018-04-02T11:58:28.200Z,22.90
2018-04-02T12:00:55.674Z,22.90
2018-04-02T12:03:23.163Z,22.90
2018-04-02T12:05:50.720Z,22.90
2018-04-02T12:08:18.980Z,22.90
2018-04-02T12:10:47.242Z,22.90
2018-04-02T12:13:14.729Z,22.90
2018-04-02T12:15:42.244Z,22.90
2018-04-02T12:18:10.506Z,22.80
2018-04-02T12:20:38.037Z,22.80
2018-04-02T12:23:05.544Z,22.80
2018-04-02T12:25:33.028Z,22.80
2018-04-02T12:28:01.286Z,22.80
2018-04-02T12:30:28.813Z,22.80
2018-04-02T12:32:56.282Z,22.80
2018-04-02T12:35:23.780Z,22.80
2018-04-02T12:37:52.040Z,22.80
2018-04-02T12:40:19.565Z,22.80
2018-04-02T12:42:47.048Z,22.80
2018-04-02T12:45:15.298Z,22.80
2018-04-02T12:47:42.816Z,22.80
2018-04-02T12:50:10.311Z,22.80
2018-04-02T12:52:37.837Z,22.80
2018-04-02T12:55:05.336Z,22.80
2018-04-02T12:57:32.938Z,22.80
2018-04-02T13:00:01.254Z,22.80
2018-04-02T13:02:29.596Z,22.80
2018-04-02T13:04:57.858Z,22.80
2018-04-02T13:07:25.328Z,22.70
2018-04-02T13:09:53.592Z,22.70
2018-04-02T13:12:21.907Z,22.70
2018-04-02T13:14:49.410Z,22.70
2018-04-02T13:17:16.894Z,22.70
2018-04-02T13:19:45.158Z,22.70
2018-04-02T13:22:12.680Z,22.70
2018-04-02T13:24:40.178Z,22.70
2018-04-02T13:27:08.416Z,22.70
2018-04-02T13:29:35.949Z,22.70
2018-04-02T13:32:03.504Z,22.70
2018-04-02T13:34:30.979Z,22.70
2018-04-02T13:36:58.498Z,22.70
2018-04-02T13:39:26.784Z,22.70
2018-04-02T13:41:54.288Z,22.70
2018-04-02T13:44:21.791Z,22.80
2018-04-02T13:46:50.041Z,22.80
2018-04-02T13:49:17.638Z,22.70
2018-04-02T13:51:45.206Z,22.80
2018-04-02T13:54:12.743Z,22.80
2018-04-02T13:56:41.010Z,22.80
2018-04-02T13:59:09.305Z,22.80
2018-04-02T14:01:36.817Z,22.80
2018-04-02T14:04:04.338Z,22.80
2018-04-02T14:06:31.840Z,22.80
2018-04-02T14:08:59.372Z,22.80
2018-04-02T14:11:26.886Z,22.80
2018-04-02T14:13:55.151Z,22.80
2018-04-02T14:16:22.665Z,22.80
2018-04-02T14:18:50.137Z,22.90
2018-04-02T14:21:17.652Z,22.90
2018-04-02T14:23:45.184Z,22.90
2018-04-02T14:26:13.463Z,22.90
2018-04-02T14:28:40.975Z,22.90
2018-04-02T14:31:08.494Z,22.90
2018-04-02T14:33:36.757Z,22.90
2018-04-02T14:36:04.243Z,22.90
2018-04-02T14:38:31.745Z,22.90
2018-04-02T14:40:59.273Z,22.90
2018-04-02T14:43:26.770Z,22.90
2018-04-02T14:45:54.257Z,22.90
2018-04-02T14:48:22.518Z,22.90
2018-04-02T14:50:50.040Z,22.90
2018-04-02T14:53:17.517Z,22.90
2018-04-02T14:55:44.999Z,22.90
2018-04-02T14:58:13.296Z,22.90
2018-04-02T15:00:40.873Z,22.90
2018-04-02T15:03:08.371Z,22.90
2018-04-02T15:05:35.953Z,22.90
2018-04-02T15:08:04.217Z,22.90
2018-04-02T15:10:31.745Z,22.90
2018-04-02T15:12:59.262Z,22.90
2018-04-02T15:15:27.557Z,22.90
2018-04-02T15:17:55.052Z,22.90
2018-04-02T15:20:22.671Z,22.90
2018-04-02T15:22:50.162Z,22.90
2018-04-02T15:25:17.669Z,22.90
2018-04-02T15:27:45.929Z,22.90
2018-04-02T15:30:13.405Z,22.90
2018-04-02T15:32:41.651Z,22.90
2018-04-02T15:35:09.175Z,22.90
2018-04-02T15:37:36.693Z,22.90
2018-04-02T15:40:04.979Z,22.90
2018-04-02T15:42:32.489Z,22.80
2018-04-02T15:44:59.970Z,22.80
2018-04-02T15:47:27.465Z,22.80
2018-04-02T15:49:54.998Z,22.80
2018-04-02T15:52:23.236Z,22.80
2018-04-02T15:54:50.728Z,22.80
2018-04-02T15:57:19.011Z,22.80
2018-04-02T15:59:47.327Z,22.80
2018-04-02T16:02:14.806Z,22.80
2018-04-02T16:04:42.361Z,22.80
2018-04-02T16:07:09.884Z,22.80
2018-04-02T16:09:37.442Z,22.80
2018-04-02T16:12:04.977Z,22.70
2018-04-02T16:14:33.234Z,22.80
2018-04-02T16:17:00.775Z,22.80
2018-04-02T16:19:28.268Z,22.80
2018-04-02T16:21:56.563Z,22.90
2018-04-02T16:24:24.073Z,22.90
2018-04-02T16:26:51.616Z,22.90
2018-04-02T16:29:19.102Z,22.90
2018-04-02T16:31:46.604Z,22.90
2018-04-02T16:34:14.094Z,22.90
2018-04-02T16:36:41.651Z,22.80
2018-04-02T16:39:09.355Z,22.90
2018-04-02T16:41:37.596Z,22.90
2018-04-02T16:44:05.117Z,22.80
2018-04-02T16:46:32.639Z,22.90
2018-04-02T16:49:00.800Z,22.80
2018-04-02T16:51:29.043Z,22.80
2018-04-02T16:53:56.591Z,22.80
2018-04-02T16:56:24.999Z,22.80
2018-04-02T16:58:52.500Z,22.80
2018-04-02T17:01:20.777Z,22.90
2018-04-02T17:03:49.030Z,22.90
2018-04-02T17:06:16.615Z,22.90
2018-04-02T17:08:44.898Z,22.90
2018-04-02T17:11:14.258Z,22.90
2018-04-02T17:13:41.793Z,22.90
2018-04-02T17:16:09.264Z,22.90
2018-04-02T17:18:36.854Z,22.90
2018-04-02T17:21:04.376Z,22.90
2018-04-02T17:23:31.898Z,22.90
2018-04-02T17:25:59.431Z,22.90
2018-04-02T17:28:30.742Z,22.90
2018-04-02T17:30:58.282Z,22.90
2018-04-02T17:33:25.786Z,22.90
2018-04-02T17:35:56.483Z,22.90
2018-04-02T17:38:23.966Z,23.00
2018-04-02T17:40:51.571Z,23.00
2018-04-02T17:43:19.827Z,23.10
2018-04-02T17:45:47.318Z,23.00
2018-04-02T17:48:14.854Z,23.10
2018-04-02T17:50:43.089Z,23.10
2018-04-02T17:53:10.682Z,23.10
2018-04-02T17:55:38.184Z,23.10
2018-04-02T17:58:05.687Z,23.10
2018-04-02T18:00:33.171Z,23.10
2018-04-02T18:03:00.694Z,23.10
2018-04-02T18:05:28.216Z,23.10
2018-04-02T18:07:55.725Z,23.10
2018-04-02T18:10:23.336Z,23.10
2018-04-02T18:12:50.836Z,23.10
2018-04-02T18:15:18.334Z,23.10
2018-04-02T18:17:45.806Z,23.10
2018-04-02T18:20:13.341Z,23.10
2018-04-02T18:22:40.829Z,23.10
2018-04-02T18:25:08.368Z,23.10
2018-04-02T18:27:35.872Z,23.00
2018-04-02T18:30:03.371Z,23.00
2018-04-02T18:32:30.893Z,23.00
2018-04-02T18:34:58.380Z,23.00
2018-04-02T18:37:26.626Z,23.00
2018-04-02T18:39:54.158Z,23.00
2018-04-02T18:42:21.807Z,23.00
2018-04-02T18:44:49.323Z,23.00
2018-04-02T18:47:17.559Z,23.00
2018-04-02T18:49:45.121Z,22.90
2018-04-02T18:52:12.634Z,23.00
2018-04-02T18:54:40.881Z,22.90
2018-04-02T18:57:08.345Z,22.90
2018-04-02T18:59:35.850Z,22.90
2018-04-02T19:02:03.361Z,22.90
2018-04-02T19:04:30.931Z,22.90
2018-04-02T19:06:59.213Z,22.90
2018-04-02T19:09:27.473Z,22.90
2018-04-02T19:11:54.972Z,22.90
2018-04-02T19:14:22.495Z,22.90
2018-04-02T19:16:49.980Z,22.90
2018-04-02T19:19:17.526Z,22.90
2018-04-02T19:21:45.811Z,22.90
2018-04-02T19:24:13.378Z,22.90
2018-04-02T19:26:40.921Z,22.90
2018-04-02T19:29:08.415Z,22.90
2018-04-02T19:31:35.977Z,22.90
2018-04-02T19:34:03.464Z,22.90
2018-04-02T19:36:30.985Z,22.90
2018-04-02T19:38:58.504Z,22.90
2018-04-02T19:41:26.743Z,22.90
2018-04-02T19:43:54.264Z,22.90
2018-04-02T19:46:21.796Z,22.90
2018-04-02T19:48:50.047Z,22.90
2018-04-02T19:51:17.774Z,22.90
2018-04-02T19:53:45.293Z,22.90
2018-04-02T19:56:12.868Z,22.90
2018-04-02T19:58:40.317Z,22.90
2018-04-02T20:01:08.576Z,22.90
2018-04-02T20:03:36.139Z,22.90
2018-04-02T20:06:03.627Z,22.90
2018-04-02T20:08:31.164Z,22.90
2018-04-02T20:10:59.428Z,22.90
2018-04-02T20:13:26.923Z,22.90
2018-04-02T20:15:54.448Z,22.90
2018-04-02T20:18:21.912Z,22.90
2018-04-02T20:20:50.391Z,22.90
2018-04-02T20:23:18.686Z,22.90
2018-04-02T20:25:46.963Z,22.90
2018-04-02T20:28:14.509Z,22.90
2018-04-02T20:30:42.801Z,22.90
2018-04-02T20:33:10.281Z,22.90
2018-04-02T20:35:37.784Z,22.90
2018-04-02T20:38:05.289Z,22.90
2018-04-02T20:40:32.820Z,22.90
2018-04-02T20:43:00.285Z,22.90
2018-04-02T20:45:27.769Z,22.90
2018-04-02T20:47:55.286Z,22.90
2018-04-02T20:50:23.534Z,23.00
2018-04-02T20:52:51.055Z,23.00
2018-04-02T20:55:18.533Z,23.00
2018-04-02T20:57:46.023Z,22.90
2018-04-02T21:00:13.539Z,22.90
2018-04-02T21:02:42.080Z,22.90
2018-04-02T21:05:10.364Z,22.90
2018-04-02T21:07:38.635Z,22.90
2018-04-02T21:10:06.941Z,22.90
2018-04-02T21:12:34.423Z,22.90
2018-04-02T21:15:02.051Z,22.90
2018-04-02T21:17:29.530Z,22.90
2018-04-02T21:19:56.998Z,22.90
2018-04-02T21:22:24.502Z,23.00
2018-04-02T21:24:51.990Z,22.90
2018-04-02T21:27:19.656Z,22.90
2018-04-02T21:29:47.170Z,22.90
2018-04-02T21:32:14.688Z,22.90
2018-04-02T21:34:42.168Z,22.90
2018-04-02T21:37:09.666Z,22.90
2018-04-02T21:39:37.180Z,22.90
2018-04-02T21:42:04.645Z,22.90
2018-04-02T21:44:32.149Z,22.90
2018-04-02T21:46:59.656Z,22.90
2018-04-02T21:49:27.203Z,22.90
2018-04-02T21:51:54.724Z,22.90
2018-04-02T21:54:22.219Z,22.90
2018-04-02T21:56:49.719Z,22.90
2018-04-02T21:59:18.013Z,22.80
2018-04-02T22:01:45.506Z,22.80
2018-04-02T22:04:12.996Z,22.80
2018-04-02T22:06:52.284Z,22.80
2018-04-02T22:09:19.782Z,22.90
2018-04-02T22:11:47.367Z,22.80
2018-04-02T22:14:15.676Z,22.80
2018-04-02T22:16:43.186Z,22.80
2018-04-02T22:19:10.767Z,22.80
2018-04-02T22:21:39.055Z,22.80
2018-04-02T22:24:06.590Z,22.80
2018-04-02T22:26:34.100Z,22.80
2018-04-02T22:29:01.622Z,22.80
2018-04-02T22:31:29.984Z,22.80
2018-04-02T22:33:58.255Z,22.80
2018-04-02T22:36:25.737Z,22.80
2018-04-02T22:38:53.276Z,22.80
2018-04-02T22:41:20.756Z,22.80
2018-04-02T22:43:48.282Z,22.80
2018-04-02T22:46:15.856Z,22.80
2018-04-02T22:48:43.339Z,22.80
2018-04-02T22:51:10.847Z,22.80
2018-04-02T22:53:39.148Z,22.80
2018-04-02T22:56:07.408Z,22.80
2018-04-02T22:58:34.904Z,22.70
2018-04-02T23:01:02.417Z,22.80
2018-04-02T23:03:29.905Z,22.70
2018-04-02T23:05:58.172Z,22.70
2018-04-02T23:08:26.470Z,22.70
2018-04-02T23:10:54.721Z,22.80
2018-04-02T23:15:56.086Z,22.70
2018-04-02T23:18:23.618Z,22.70
2018-04-02T23:20:51.124Z,22.80
2018-04-02T23:23:19.388Z,22.70
2018-04-02T23:25:47.690Z,22.70
2018-04-02T23:28:15.176Z,22.70
2018-04-02T23:30:42.694Z,22.70
2018-04-02T23:33:10.963Z,22.70
2018-04-02T23:35:39.216Z,22.70
2018-04-02T23:38:06.709Z,22.70
2018-04-02T23:40:34.218Z,22.70
2018-04-02T23:43:01.698Z,22.70
2018-04-02T23:45:29.230Z,22.70
2018-04-02T23:47:56.720Z,22.70
2018-04-02T23:50:24.274Z,22.70
2018-04-02T23:52:51.758Z,22.70
2018-04-02T23:55:19.262Z,22.70
2018-04-02T23:57:46.774Z,22.70
